Time;durP1;ratioP1;P1;durP2;ratioP2;P2;SDS_P1;SDS_P2;PMS_P1;PMS_P2;Temp;Humidity;BMP_temperature;BMP_pressure;BME280_temperature;BME280_humidity;BME280_pressure;Samples;Min_cycle;Max_cycle;Signal;HPM_P1;HPM_P2
2021/08/20 00:03:02;;;;;;;3.97;2.42;;;;;;;;;;6227034;28;20069;-82
2021/08/20 00:06:04;;;;;;;3.63;2.65;;;;;;;;;;6227951;28;20117;-83
2021/08/20 00:09:06;;;;;;;2.87;2.40;;;;;;;;;;6211933;28;20058;-83
2021/08/20 00:12:08;;;;;;;4.38;2.20;;;;;;;;;;6228070;28;20052;-82
2021/08/20 00:15:11;;;;;;;4.82;2.60;;;;;;;;;;6210058;28;20034;-82
2021/08/20 00:18:13;;;;;;;5.40;2.58;;;;;;;;;;6200809;28;20045;-82
2021/08/20 00:21:15;;;;;;;4.10;3.07;;;;;;;;;;6216847;28;20057;-82
2021/08/20 00:24:16;;;;;;;5.13;2.70;;;;;;;;;;6225589;28;20511;-82
2021/08/20 00:27:18;;;;;;;3.95;2.85;;;;;;;;;;6228119;28;20086;-83
2021/08/20 00:30:20;;;;;;;5.90;3.20;;;;;;;;;;6211693;28;20050;-82
2021/08/20 00:33:23;;;;;;;6.47;2.83;;;;;;;;;;6226610;28;20109;-81
2021/08/20 00:36:24;;;;;;;4.82;3.00;;;;;;;;;;6229812;28;20056;-81
2021/08/20 00:39:26;;;;;;;5.50;2.97;;;;;;;;;;6227859;28;20104;-81
2021/08/20 00:42:29;;;;;;;4.10;3.35;;;;;;;;;;6229633;28;20041;-82
2021/08/20 00:45:32;;;;;;;4.22;2.88;;;;;;;;;;6218925;28;20050;-81
2021/08/20 00:48:33;;;;;;;5.85;3.53;;;;;;;;;;6219588;28;20041;-83
2021/08/20 00:51:38;;;;;;;4.95;3.42;;;;;;;;;;6212729;28;20052;-81
2021/08/20 00:54:40;;;;;;;5.47;3.42;;;;;;;;;;6217461;28;20136;-82
2021/08/20 00:57:47;;;;;;;6.68;3.35;;;;;;;;;;6221086;28;20056;-82
2021/08/20 01:00:53;;;;;;;4.82;3.17;;;;;;;;;;6229136;28;20037;-81
2021/08/20 01:03:55;;;;;;;4.85;3.45;;;;;;;;;;6212611;28;20038;-82
2021/08/20 01:06:58;;;;;;;5.07;3.22;;;;;;;;;;6212204;28;20077;-83
2021/08/20 01:10:00;;;;;;;6.90;3.10;;;;;;;;;;6211996;28;20033;-81
2021/08/20 01:13:02;;;;;;;6.13;3.25;;;;;;;;;;6212478;28;20048;-82
2021/08/20 01:16:05;;;;;;;4.88;3.15;;;;;;;;;;6210132;28;20052;-82
2021/08/20 01:19:08;;;;;;;6.53;3.60;;;;;;;;;;6228890;28;20045;-81
2021/08/20 01:22:10;;;;;;;5.30;3.73;;;;;;;;;;6212702;28;20065;-82
2021/08/20 01:25:17;;;;;;;5.85;3.40;;;;;;;;;;6227877;28;20054;-82
2021/08/20 01:28:24;;;;;;;6.40;3.15;;;;;;;;;;6228938;28;20502;-82
2021/08/20 01:31:30;;;;;;;6.32;3.00;;;;;;;;;;6204442;28;20053;-82
2021/08/20 01:34:32;;;;;;;6.85;3.15;;;;;;;;;;6212533;28;20097;-82
2021/08/20 01:37:33;;;;;;;4.50;3.30;;;;;;;;;;6226702;28;20046;-83
2021/08/20 01:40:38;;;;;;;4.38;2.78;;;;;;;;;;6227691;28;20053;-82
2021/08/20 01:43:40;;;;;;;4.38;2.95;;;;;;;;;;6211503;28;20041;-83
2021/08/20 01:46:41;;;;;;;6.28;3.40;;;;;;;;;;6211449;28;20046;-82
2021/08/20 01:49:43;;;;;;;5.30;3.20;;;;;;;;;;6211879;28;20058;-84
2021/08/20 01:52:45;;;;;;;4.65;2.92;;;;;;;;;;6226189;28;20056;-82
2021/08/20 01:55:49;;;;;;;5.82;3.38;;;;;;;;;;6211411;28;20041;-82
2021/08/20 01:58:55;;;;;;;6.03;3.30;;;;;;;;;;6191153;28;20121;-82
2021/08/20 02:02:04;;;;;;;;;;;;;;;;;;6228532;28;20092;-83
2021/08/20 02:05:07;;;;;;;6.77;3.20;;;;;;;;;;6227046;28;19921;-82
2021/08/20 02:08:09;;;;;;;4.30;3.00;;;;;;;;;;6211942;28;20601;-82
2021/08/20 02:11:12;;;;;;;7.65;4.10;;;;;;;;;;6211107;28;20461;-82
2021/08/20 02:14:20;;;;;;;4.75;3.47;;;;;;;;;;6212516;28;20050;-82
2021/08/20 02:17:22;;;;;;;7.00;3.97;;;;;;;;;;6211167;28;20041;-82
2021/08/20 02:20:24;;;;;;;5.72;3.83;;;;;;;;;;6211719;28;20065;-82
2021/08/20 02:23:26;;;;;;;6.68;3.70;;;;;;;;;;6213787;28;20736;-82
2021/08/20 02:26:28;;;;;;;6.70;3.33;;;;;;;;;;6216360;28;20041;-82
2021/08/20 02:29:32;;;;;;;5.57;3.60;;;;;;;;;;6208082;28;20038;-83
2021/08/20 02:32:37;;;;;;;8.32;4.10;;;;;;;;;;6216096;28;20042;-82
2021/08/20 02:35:55;;;;;;;7.15;3.90;;;;;;;;;;6218630;28;20045;-83
2021/08/20 02:38:56;;;;;;;7.78;4.40;;;;;;;;;;6214134;28;20060;-83
2021/08/20 02:41:59;;;;;;;7.38;4.07;;;;;;;;;;6226344;28;20068;-79
2021/08/20 02:45:00;;;;;;;6.13;4.00;;;;;;;;;;6182933;28;20053;-80
2021/08/20 02:48:02;;;;;;;4.47;3.40;;;;;;;;;;6203680;28;20125;-80
2021/08/20 02:51:07;;;;;;;6.25;3.70;;;;;;;;;;6205202;28;20066;-80
2021/08/20 02:54:09;;;;;;;9.68;4.18;;;;;;;;;;6207369;28;20042;-80
2021/08/20 02:57:11;;;;;;;6.05;3.50;;;;;;;;;;6202114;28;20042;-80
2021/08/20 03:00:20;;;;;;;6.75;3.55;;;;;;;;;;6198640;28;20050;-80
2021/08/20 03:03:26;;;;;;;5.88;3.42;;;;;;;;;;6190433;28;20053;-80
2021/08/20 03:06:32;;;;;;;7.07;3.90;;;;;;;;;;6190852;28;20051;-80
2021/08/20 03:09:35;;;;;;;5.15;3.47;;;;;;;;;;6174067;28;20034;-80
2021/08/20 03:12:37;;;;;;;8.82;4.10;;;;;;;;;;6177898;28;20045;-80
2021/08/20 03:15:40;;;;;;;10.90;5.05;;;;;;;;;;6198081;28;20038;-80
2021/08/20 03:18:41;;;;;;;9.15;4.45;;;;;;;;;;6193992;28;20519;-80
2021/08/20 03:21:48;;;;;;;10.15;4.80;;;;;;;;;;6192136;28;20046;-80
2021/08/20 03:24:51;;;;;;;9.68;5.00;;;;;;;;;;6197813;28;20050;-80
2021/08/20 03:27:55;;;;;;;8.60;4.85;;;;;;;;;;6197613;28;20077;-80
2021/08/20 03:31:08;;;;;;;9.03;4.73;;;;;;;;;;6174555;28;20519;-80
2021/08/20 03:34:12;;;;;;;8.27;4.55;;;;;;;;;;6157682;28;20046;-80
2021/08/20 03:37:13;;;;;;;27.83;4.60;;;;;;;;;;6170655;28;20062;-80
2021/08/20 03:40:18;;;;;;;9.27;4.75;;;;;;;;;;6171522;28;20050;-80
2021/08/20 03:43:28;;;;;;;11.23;4.57;;;;;;;;;;6171018;28;20042;-80
2021/08/20 03:46:43;;;;;;;7.13;4.30;;;;;;;;;;6179984;28;20042;-81
2021/08/20 03:49:45;;;;;;;7.55;4.35;;;;;;;;;;6165931;28;20050;-81
2021/08/20 03:52:46;;;;;;;24.23;5.05;;;;;;;;;;6154939;28;20054;-81
2021/08/20 03:55:49;;;;;;;45.97;7.90;;;;;;;;;;6170666;28;20046;-81
2021/08/20 03:59:19;;;;;;;34.10;5.50;;;;;;;;;;6171135;28;20047;-81
2021/08/20 04:02:24;;;;;;;25.92;5.93;;;;;;;;;;6172667;28;20063;-81
2021/08/20 04:05:26;;;;;;;18.08;6.32;;;;;;;;;;6170207;28;20074;-81
2021/08/20 04:08:40;;;;;;;49.03;7.85;;;;;;;;;;6169901;28;20035;-80
2021/08/20 04:12:07;;;;;;;46.03;5.90;;;;;;;;;;6140177;28;20046;-81
2021/08/20 04:15:36;;;;;;;36.67;5.35;;;;;;;;;;6193414;28;20043;-81
2021/08/20 04:18:40;;;;;;;34.30;5.03;;;;;;;;;;6176942;28;20054;-81
2021/08/20 04:21:44;;;;;;;37.00;6.10;;;;;;;;;;6181799;28;20074;-82
2021/08/20 04:24:48;;;;;;;9.48;5.00;;;;;;;;;;6197585;28;20046;-81
2021/08/20 04:28:09;;;;;;;8.23;4.20;;;;;;;;;;6188248;28;20042;-81
2021/08/20 04:31:28;;;;;;;5.28;3.47;;;;;;;;;;6182485;28;20578;-81
2021/08/20 04:34:49;;;;;;;6.22;4.00;;;;;;;;;;6183686;28;20491;-81
2021/08/20 04:37:58;;;;;;;13.32;5.82;;;;;;;;;;6186417;28;20054;-81
2021/08/20 04:41:08;;;;;;;11.82;5.32;;;;;;;;;;6155069;28;20047;-81
2021/08/20 04:44:35;;;;;;;12.18;5.30;;;;;;;;;;6169820;28;20050;-81
2021/08/20 04:47:53;;;;;;;9.32;5.15;;;;;;;;;;6190254;28;20077;-81
2021/08/20 04:51:18;;;;;;;11.15;5.50;;;;;;;;;;6190890;28;20072;-81
2021/08/20 04:54:41;;;;;;;8.25;4.78;;;;;;;;;;6166940;28;20038;-81
2021/08/20 04:57:45;;;;;;;9.75;4.82;;;;;;;;;;6186352;28;20046;-81
2021/08/20 05:00:47;;;;;;;8.07;4.30;;;;;;;;;;6192973;28;20121;-82
2021/08/20 05:03:49;;;;;;;7.63;4.35;;;;;;;;;;6170143;28;20492;-81
2021/08/20 05:06:53;;;;;;;9.05;4.50;;;;;;;;;;6146818;28;20042;-82
2021/08/20 05:09:55;;;;;;;8.13;4.40;;;;;;;;;;6169991;28;20099;-81
2021/08/20 05:12:56;;;;;;;8.70;4.65;;;;;;;;;;6172065;28;20042;-81
2021/08/20 05:15:58;;;;;;;8.02;4.43;;;;;;;;;;6170533;28;20046;-82
2021/08/20 05:19:00;;;;;;;7.93;4.40;;;;;;;;;;6161340;28;20392;-81
2021/08/20 05:22:01;;;;;;;8.30;4.90;;;;;;;;;;6190103;28;20047;-81
2021/08/20 05:25:03;;;;;;;9.15;4.80;;;;;;;;;;6194455;28;20048;-80
2021/08/20 05:28:05;;;;;;;8.95;5.30;;;;;;;;;;6213254;28;20054;-81
2021/08/20 05:31:07;;;;;;;10.27;6.45;;;;;;;;;;6195129;28;20042;-80
2021/08/20 05:34:08;;;;;;;14.77;8.88;;;;;;;;;;6183526;28;20185;-80
2021/08/20 05:37:10;;;;;;;16.98;9.90;;;;;;;;;;6201020;28;20050;-81
2021/08/20 05:40:12;;;;;;;17.33;9.98;;;;;;;;;;6220329;28;20048;-81
2021/08/20 05:43:14;;;;;;;8.18;5.30;;;;;;;;;;6193063;28;20046;-81
2021/08/20 05:46:16;;;;;;;13.95;8.77;;;;;;;;;;6184701;28;20046;-81
2021/08/20 05:49:17;;;;;;;13.82;9.00;;;;;;;;;;6193045;28;20210;-81
2021/08/20 05:52:19;;;;;;;16.40;10.32;;;;;;;;;;6194251;28;20055;-81
2021/08/20 05:55:20;;;;;;;22.40;12.40;;;;;;;;;;6194798;28;20050;-81
2021/08/20 05:58:22;;;;;;;20.10;12.35;;;;;;;;;;6200718;28;20057;-81
2021/08/20 06:01:23;;;;;;;21.25;12.93;;;;;;;;;;6193023;28;20050;-81
2021/08/20 06:04:26;;;;;;;20.37;13.27;;;;;;;;;;6192087;28;20077;-81
2021/08/20 06:07:27;;;;;;;20.98;13.63;;;;;;;;;;6192983;28;20149;-81
2021/08/20 06:10:31;;;;;;;20.75;13.63;;;;;;;;;;6195275;28;20130;-82
2021/08/20 06:13:33;;;;;;;21.27;12.95;;;;;;;;;;6179930;28;20581;-81
2021/08/20 06:16:35;;;;;;;18.85;12.52;;;;;;;;;;6169303;28;20054;-81
2021/08/20 06:19:37;;;;;;;20.48;12.93;;;;;;;;;;6171038;28;20047;-81
2021/08/20 06:22:39;;;;;;;26.35;14.00;;;;;;;;;;6196693;28;20084;-81
2021/08/20 06:25:40;;;;;;;22.63;13.65;;;;;;;;;;6196069;28;20042;-81
2021/08/20 06:28:42;;;;;;;18.52;12.70;;;;;;;;;;6189209;28;20057;-81
2021/08/20 06:31:44;;;;;;;22.23;13.73;;;;;;;;;;6186954;28;20051;-81
2021/08/20 06:34:45;;;;;;;20.05;13.52;;;;;;;;;;6171587;28;20046;-81
2021/08/20 06:37:47;;;;;;;20.75;12.40;;;;;;;;;;6170651;28;20039;-83
2021/08/20 06:40:49;;;;;;;15.48;10.52;;;;;;;;;;6170473;28;20057;-81
2021/08/20 06:43:50;;;;;;;17.40;12.07;;;;;;;;;;6169154;28;20048;-82
2021/08/20 06:46:52;;;;;;;21.75;12.52;;;;;;;;;;6175913;28;20061;-81
2021/08/20 06:49:54;;;;;;;16.95;12.15;;;;;;;;;;6196864;28;20054;-80
2021/08/20 06:52:55;;;;;;;17.17;11.95;;;;;;;;;;6193723;28;20038;-81
2021/08/20 06:55:57;;;;;;;18.48;12.45;;;;;;;;;;6193922;28;20088;-81
2021/08/20 06:58:58;;;;;;;18.48;12.38;;;;;;;;;;6167685;28;20043;-82
2021/08/20 07:02:00;;;;;;;16.50;11.70;;;;;;;;;;6176332;28;20046;-81
2021/08/20 07:05:03;;;;;;;21.00;13.73;;;;;;;;;;6168948;28;20043;-82
2021/08/20 07:08:08;;;;;;;18.83;12.50;;;;;;;;;;6188078;28;20497;-82
2021/08/20 07:11:09;;;;;;;18.90;13.40;;;;;;;;;;6189680;28;20047;-81
2021/08/20 07:14:11;;;;;;;18.42;12.55;;;;;;;;;;6178431;28;20039;-82
2021/08/20 07:17:12;;;;;;;20.60;13.30;;;;;;;;;;6177357;28;20043;-81
2021/08/20 07:20:14;;;;;;;26.88;15.88;;;;;;;;;;6190935;28;20050;-81
2021/08/20 07:23:18;;;;;;;24.42;14.57;;;;;;;;;;6175695;28;20054;-81
2021/08/20 07:26:20;;;;;;;26.83;15.57;;;;;;;;;;6180721;28;20038;-82
2021/08/20 07:29:21;;;;;;;27.35;15.07;;;;;;;;;;6190804;28;20198;-82
2021/08/20 07:32:23;;;;;;;28.95;15.52;;;;;;;;;;6193036;28;20611;-81
2021/08/20 07:35:24;;;;;;;28.45;15.18;;;;;;;;;;6179896;28;20050;-83
2021/08/20 07:38:26;;;;;;;25.40;15.93;;;;;;;;;;6189440;28;20148;-83
2021/08/20 07:41:28;;;;;;;26.70;15.52;;;;;;;;;;6201323;28;20123;-82
2021/08/20 07:44:29;;;;;;;27.08;15.82;;;;;;;;;;6195476;28;20826;-82
2021/08/20 07:47:31;;;;;;;21.55;14.70;;;;;;;;;;6198496;28;20049;-82
2021/08/20 07:50:33;;;;;;;27.35;14.95;;;;;;;;;;6200229;28;20037;-82
2021/08/20 07:53:35;;;;;;;21.90;14.40;;;;;;;;;;6216396;28;20045;-82
2021/08/20 07:56:36;;;;;;;23.25;14.20;;;;;;;;;;6220940;28;20048;-82
2021/08/20 07:59:38;;;;;;;22.58;14.13;;;;;;;;;;6194306;28;20047;-82
2021/08/20 08:02:40;;;;;;;20.00;13.27;;;;;;;;;;6187333;28;20038;-82
2021/08/20 08:05:42;;;;;;;21.57;13.77;;;;;;;;;;6200747;28;20519;-82
2021/08/20 08:08:43;;;;;;;19.95;12.40;;;;;;;;;;6220175;28;20050;-82
2021/08/20 08:11:45;;;;;;;19.48;11.98;;;;;;;;;;6214981;28;20043;-81
2021/08/20 08:14:47;;;;;;;17.67;11.60;;;;;;;;;;6176632;28;20049;-83
2021/08/20 08:17:48;;;;;;;13.55;9.00;;;;;;;;;;6173362;28;20519;-82
2021/08/20 08:20:50;;;;;;;15.13;9.30;;;;;;;;;;6195843;28;20042;-82
2021/08/20 08:23:51;;;;;;;13.20;8.35;;;;;;;;;;6171927;28;20053;-83
2021/08/20 08:26:53;;;;;;;11.93;7.82;;;;;;;;;;6194990;28;20459;-83
2021/08/20 08:29:55;;;;;;;12.32;8.02;;;;;;;;;;6193566;28;20042;-83
2021/08/20 08:32:58;;;;;;;12.27;8.05;;;;;;;;;;6193715;28;20046;-83
2021/08/20 08:36:01;;;;;;;12.68;7.60;;;;;;;;;;6182771;28;20051;-83
2021/08/20 08:39:03;;;;;;;12.65;8.25;;;;;;;;;;6177938;28;20042;-83
2021/08/20 08:42:05;;;;;;;11.05;7.78;;;;;;;;;;6196074;28;20042;-84
2021/08/20 08:45:07;;;;;;;9.13;7.07;;;;;;;;;;6175580;28;20492;-83
2021/08/20 08:48:10;;;;;;;10.20;7.22;;;;;;;;;;6195108;28;20054;-83
2021/08/20 08:51:12;;;;;;;11.00;8.00;;;;;;;;;;6195759;28;20590;-83
2021/08/20 08:54:15;;;;;;;11.77;7.60;;;;;;;;;;6195214;28;20060;-82
2021/08/20 08:57:18;;;;;;;8.75;7.18;;;;;;;;;;6194361;28;20519;-82
2021/08/20 09:00:36;;;;;;;10.68;7.20;;;;;;;;;;6219458;28;20053;-83
2021/08/20 09:03:38;;;;;;;8.23;6.50;;;;;;;;;;6217973;28;20108;-82
2021/08/20 09:06:44;;;;;;;9.80;6.78;;;;;;;;;;6196067;28;20056;-82
2021/08/20 09:09:45;;;;;;;10.00;7.20;;;;;;;;;;6195853;28;20058;-82
2021/08/20 09:12:50;;;;;;;10.65;7.22;;;;;;;;;;6195913;28;20039;-83
2021/08/20 09:16:06;;;;;;;9.07;6.85;;;;;;;;;;6198145;28;20053;-84
2021/08/20 09:19:15;;;;;;;9.68;7.55;;;;;;;;;;6191005;28;20101;-82
2021/08/20 09:22:16;;;;;;;10.82;7.30;;;;;;;;;;6163859;28;20062;-82
2021/08/20 09:25:38;;;;;;;8.95;6.95;;;;;;;;;;6194366;28;20050;-81
2021/08/20 09:28:39;;;;;;;11.45;7.85;;;;;;;;;;6194884;28;20038;-82
2021/08/20 09:31:52;;;;;;;8.30;6.65;;;;;;;;;;6198366;28;20073;-83
2021/08/20 09:34:57;;;;;;;12.00;7.03;;;;;;;;;;6188752;28;20142;-82
2021/08/20 09:38:07;;;;;;;8.07;6.85;;;;;;;;;;6174664;28;20075;-83
2021/08/20 09:41:16;;;;;;;;;;;;;;;;;;6194315;28;20698;-80
2021/08/20 09:44:24;;;;;;;8.65;6.38;;;;;;;;;;6170387;28;20003;-81
2021/08/20 09:47:26;;;;;;;8.60;6.60;;;;;;;;;;6191378;28;20073;-83
2021/08/20 09:50:42;;;;;;;8.63;6.68;;;;;;;;;;6189538;28;20050;-82
2021/08/20 09:53:55;;;;;;;8.60;6.30;;;;;;;;;;6177154;28;20050;-83
2021/08/20 09:56:58;;;;;;;7.28;6.10;;;;;;;;;;6180479;28;20047;-80
2021/08/20 10:00:00;;;;;;;7.65;5.75;;;;;;;;;;6167818;28;20101;-81
2021/08/20 10:03:04;;;;;;;7.60;6.40;;;;;;;;;;6172238;28;20049;-82
2021/08/20 10:06:06;;;;;;;7.35;5.97;;;;;;;;;;6182249;28;20057;-81
2021/08/20 10:09:10;;;;;;;7.93;6.70;;;;;;;;;;6193640;28;20042;-81
2021/08/20 10:12:20;;;;;;;8.45;6.70;;;;;;;;;;6174978;28;20423;-79
2021/08/20 10:15:24;;;;;;;8.13;6.47;;;;;;;;;;6173148;28;20126;-79
2021/08/20 10:18:25;;;;;;;8.52;6.03;;;;;;;;;;6176753;28;20042;-77
2021/08/20 10:21:31;;;;;;;7.20;5.85;;;;;;;;;;6203523;28;20056;-80
2021/08/20 10:24:33;;;;;;;10.77;5.85;;;;;;;;;;6192416;28;20066;-77
2021/08/20 10:27:37;;;;;;;6.97;6.18;;;;;;;;;;6178833;28;20039;-78
2021/08/20 10:30:43;;;;;;;6.50;5.60;;;;;;;;;;6168934;28;20047;-80
2021/08/20 10:33:44;;;;;;;6.97;5.85;;;;;;;;;;6187586;28;20070;-79
2021/08/20 10:36:46;;;;;;;6.72;5.40;;;;;;;;;;6197661;28;20046;-78
2021/08/20 10:39:49;;;;;;;6.57;5.88;;;;;;;;;;6190113;28;20046;-77
2021/08/20 10:42:51;;;;;;;5.82;5.22;;;;;;;;;;6192928;28;20042;-80
2021/08/20 10:45:53;;;;;;;5.78;5.18;;;;;;;;;;6191667;28;20089;-77
2021/08/20 10:52:35;;;;;;;7.30;5.45;;;;;;;;;;6188515;28;20050;-81
2021/08/20 10:55:36;;;;;;;6.88;5.05;;;;;;;;;;6188850;28;20732;-79
2021/08/20 10:58:41;;;;;;;7.63;5.70;;;;;;;;;;6188337;28;20102;-79
2021/08/20 11:01:42;;;;;;;7.65;5.72;;;;;;;;;;6209157;28;20042;-80
2021/08/20 11:04:58;;;;;;;6.13;4.77;;;;;;;;;;6171767;28;20058;-78
2021/08/20 11:07:59;;;;;;;6.07;4.43;;;;;;;;;;6173148;28;20445;-81
2021/08/20 11:11:02;;;;;;;4.65;4.13;;;;;;;;;;6178942;28;20051;-81
2021/08/20 11:14:26;;;;;;;6.13;3.80;;;;;;;;;;6187103;28;20048;-80
2021/08/20 11:18:00;;;;;;;4.95;3.72;;;;;;;;;;6180998;28;20047;-79
2021/08/20 11:21:01;;;;;;;5.20;4.30;;;;;;;;;;6185776;28;20057;-79
2021/08/20 11:24:30;;;;;;;5.90;4.30;;;;;;;;;;6187823;28;20089;-78
2021/08/20 11:27:32;;;;;;;4.60;3.80;;;;;;;;;;6177933;28;20067;-78
2021/08/20 11:30:39;;;;;;;4.67;3.80;;;;;;;;;;6165781;28;20430;-78
2021/08/20 11:33:42;;;;;;;3.67;3.38;;;;;;;;;;6181080;28;20051;-79
2021/08/20 11:36:59;;;;;;;5.28;3.75;;;;;;;;;;6161479;28;20054;-79
2021/08/20 11:40:07;;;;;;;3.80;3.30;;;;;;;;;;6175150;28;20042;-79
2021/08/20 11:43:10;;;;;;;4.47;3.22;;;;;;;;;;6180968;28;20058;-79
2021/08/20 11:46:12;;;;;;;3.80;3.35;;;;;;;;;;6169221;28;20046;-79
2021/08/20 11:49:25;;;;;;;5.30;3.47;;;;;;;;;;6180112;28;20050;-79
2021/08/20 11:52:29;;;;;;;3.97;3.25;;;;;;;;;;6170289;28;20050;-79
2021/08/20 11:55:32;;;;;;;4.13;3.30;;;;;;;;;;6189216;28;20177;-79
2021/08/20 11:58:54;;;;;;;7.43;3.40;;;;;;;;;;6183073;28;20050;-79
2021/08/20 12:02:01;;;;;;;3.90;3.50;;;;;;;;;;6188555;28;20046;-79
2021/08/20 12:05:21;;;;;;;3.30;3.00;;;;;;;;;;6172993;28;20039;-79
2021/08/20 12:08:23;;;;;;;3.85;2.90;;;;;;;;;;6163377;28;20055;-79
2021/08/20 12:11:28;;;;;;;2.72;2.53;;;;;;;;;;6166043;28;20049;-79
2021/08/20 12:14:29;;;;;;;3.03;2.65;;;;;;;;;;6170868;28;20051;-79
2021/08/20 12:17:33;;;;;;;3.83;3.22;;;;;;;;;;6162767;28;20043;-79
2021/08/20 12:20:41;;;;;;;3.55;3.25;;;;;;;;;;6178051;28;20046;-79
2021/08/20 12:23:59;;;;;;;3.70;3.28;;;;;;;;;;6183790;28;20062;-79
2021/08/20 12:27:20;;;;;;;3.97;3.25;;;;;;;;;;6182188;28;20503;-78
2021/08/20 12:30:25;;;;;;;3.33;3.03;;;;;;;;;;6184927;28;20506;-79
2021/08/20 12:33:27;;;;;;;4.10;3.65;;;;;;;;;;6177051;28;20050;-79
2021/08/20 12:36:29;;;;;;;3.67;3.30;;;;;;;;;;6182052;28;20049;-79
2021/08/20 12:39:39;;;;;;;3.45;2.95;;;;;;;;;;6178765;28;20046;-79
2021/08/20 12:42:53;;;;;;;3.70;3.17;;;;;;;;;;6195469;28;20046;-80
2021/08/20 12:46:25;;;;;;;2.92;2.70;;;;;;;;;;6189019;28;20038;-80
2021/08/20 12:49:27;;;;;;;3.78;3.38;;;;;;;;;;6181546;28;20051;-80
2021/08/20 12:52:32;;;;;;;3.33;3.03;;;;;;;;;;6179946;28;20508;-80
2021/08/20 12:55:38;;;;;;;4.45;3.40;;;;;;;;;;6166776;28;20043;-79
2021/08/20 12:58:39;;;;;;;4.68;3.58;;;;;;;;;;6170059;28;20038;-79
2021/08/20 13:01:41;;;;;;;4.60;3.70;;;;;;;;;;6172267;28;20181;-81
2021/08/20 13:04:43;;;;;;;4.23;3.20;;;;;;;;;;6187465;28;20046;-81
2021/08/20 13:07:44;;;;;;;4.00;3.15;;;;;;;;;;6180013;28;20066;-83
2021/08/20 13:10:46;;;;;;;3.85;3.42;;;;;;;;;;6179162;28;20039;-82
2021/08/20 13:13:49;;;;;;;3.77;3.37;;;;;;;;;;6189088;28;20047;-82
2021/08/20 13:16:55;;;;;;;4.28;3.67;;;;;;;;;;6205035;28;20053;-83
2021/08/20 13:19:57;;;;;;;3.65;3.35;;;;;;;;;;6202433;28;20053;-81
2021/08/20 13:22:59;;;;;;;3.45;3.00;;;;;;;;;;6189805;28;20052;-84
2021/08/20 13:26:09;;;;;;;3.97;3.20;;;;;;;;;;6190752;28;20053;-84
2021/08/20 13:29:11;;;;;;;5.97;3.13;;;;;;;;;;6191033;28;20456;-81
2021/08/20 13:32:13;;;;;;;3.20;2.90;;;;;;;;;;6191240;28;20034;-84
2021/08/20 13:35:14;;;;;;;3.35;3.05;;;;;;;;;;6176298;28;20031;-80
2021/08/20 13:38:16;;;;;;;3.63;3.25;;;;;;;;;;6166934;28;20043;-80
2021/08/20 13:41:17;;;;;;;2.72;2.53;;;;;;;;;;6184583;28;20034;-84
2021/08/20 13:44:19;;;;;;;5.78;2.50;;;;;;;;;;6176961;28;20054;-80
2021/08/20 13:47:20;;;;;;;4.25;3.05;;;;;;;;;;6167146;28;20051;-80
2021/08/20 13:50:22;;;;;;;3.47;2.67;;;;;;;;;;6188162;28;20054;-81
2021/08/20 13:53:24;;;;;;;3.45;2.80;;;;;;;;;;6182787;28;20426;-82
2021/08/20 13:56:26;;;;;;;3.15;2.60;;;;;;;;;;6211828;28;20096;-80
2021/08/20 13:59:28;;;;;;;2.70;2.10;;;;;;;;;;6206682;28;20144;-81
2021/08/20 14:02:29;;;;;;;2.08;1.70;;;;;;;;;;6187886;28;20444;-83
2021/08/20 14:05:33;;;;;;;2.42;1.70;;;;;;;;;;6172466;28;20051;-81
2021/08/20 14:08:35;;;;;;;2.90;1.70;;;;;;;;;;6180328;28;20049;-84
2021/08/20 14:11:37;;;;;;;4.40;1.92;;;;;;;;;;6165855;28;20882;-80
2021/08/20 14:14:38;;;;;;;1.95;1.58;;;;;;;;;;6164015;28;20055;-80
2021/08/20 14:17:40;;;;;;;2.08;1.25;;;;;;;;;;6169521;28;20070;-80
2021/08/20 14:20:43;;;;;;;1.83;1.50;;;;;;;;;;6170017;28;20031;-82
2021/08/20 14:23:44;;;;;;;2.55;1.30;;;;;;;;;;6190329;28;20039;-81
2021/08/20 14:26:46;;;;;;;1.60;1.50;;;;;;;;;;6182101;28;20045;-82
2021/08/20 14:29:48;;;;;;;1.30;1.20;;;;;;;;;;6185385;28;20050;-80
2021/08/20 14:32:49;;;;;;;2.70;1.40;;;;;;;;;;6181465;28;20046;-80
2021/08/20 14:35:51;;;;;;;1.98;1.20;;;;;;;;;;6163322;28;20042;-82
2021/08/20 14:38:52;;;;;;;2.05;1.33;;;;;;;;;;6185989;28;20050;-83
2021/08/20 14:41:54;;;;;;;2.60;1.30;;;;;;;;;;6183328;28;20038;-80
2021/08/20 14:44:56;;;;;;;1.55;1.45;;;;;;;;;;6185399;28;20042;-80
2021/08/20 14:47:58;;;;;;;2.63;1.60;;;;;;;;;;6217974;28;20056;-79
2021/08/20 14:51:00;;;;;;;1.63;1.50;;;;;;;;;;6173543;28;20039;-79
2021/08/20 14:54:01;;;;;;;1.80;1.60;;;;;;;;;;6183829;28;20047;-82
2021/08/20 14:57:03;;;;;;;1.70;1.60;;;;;;;;;;6192468;28;20083;-81
2021/08/20 15:00:07;;;;;;;2.03;1.83;;;;;;;;;;6187752;28;20411;-80
2021/08/20 15:03:11;;;;;;;2.20;2.00;;;;;;;;;;6194156;28;20141;-80
2021/08/20 15:06:18;;;;;;;2.90;1.20;;;;;;;;;;6167777;28;20046;-80
2021/08/20 15:09:19;;;;;;;1.45;1.20;;;;;;;;;;6168912;28;20057;-80
2021/08/20 15:12:26;;;;;;;1.42;1.10;;;;;;;;;;6176454;28;20395;-82
2021/08/20 15:15:29;;;;;;;1.52;1.10;;;;;;;;;;6192549;28;20053;-80
2021/08/20 15:18:32;;;;;;;1.15;0.95;;;;;;;;;;6182356;28;20042;-84
2021/08/20 15:21:35;;;;;;;1.70;1.20;;;;;;;;;;6191321;28;20038;-80
2021/08/20 15:24:37;;;;;;;;;;;;;;;;;;6191727;28;20038;-80
2021/08/20 15:27:39;;;;;;;1.42;1.17;;;;;;;;;;6206331;28;19922;-80
2021/08/20 15:30:41;;;;;;;1.10;1.00;;;;;;;;;;6180648;28;20046;-80
2021/08/20 15:33:43;;;;;;;1.97;1.07;;;;;;;;;;6180987;28;20074;-80
2021/08/20 15:36:45;;;;;;;2.13;0.90;;;;;;;;;;6174509;28;20049;-80
2021/08/20 15:39:46;;;;;;;2.20;0.87;;;;;;;;;;6188705;28;20034;-82
2021/08/20 15:42:48;;;;;;;1.67;0.77;;;;;;;;;;6194757;28;20042;-85
2021/08/20 15:45:50;;;;;;;0.90;0.60;;;;;;;;;;6175615;28;20415;-78
2021/08/20 15:48:52;;;;;;;1.15;0.70;;;;;;;;;;6184134;28;20517;-79
2021/08/20 15:51:54;;;;;;;1.00;0.52;;;;;;;;;;6190924;28;20042;-79
2021/08/20 15:54:56;;;;;;;1.77;0.93;;;;;;;;;;6183899;28;20053;-79
2021/08/20 15:57:58;;;;;;;0.90;0.90;;;;;;;;;;6175079;28;20043;-81
2021/08/20 16:00:59;;;;;;;0.70;0.68;;;;;;;;;;6179085;28;20042;-82
2021/08/20 16:04:02;;;;;;;0.70;0.70;;;;;;;;;;6188449;28;20086;-81
2021/08/20 16:07:06;;;;;;;1.13;0.73;;;;;;;;;;6175195;28;20273;-82
2021/08/20 16:10:11;;;;;;;1.33;0.70;;;;;;;;;;6174100;28;20046;-81
2021/08/20 16:13:13;;;;;;;0.70;0.70;;;;;;;;;;6171867;28;20046;-79
2021/08/20 16:16:15;;;;;;;0.80;0.73;;;;;;;;;;6175986;28;20125;-79
2021/08/20 16:19:16;;;;;;;1.23;1.00;;;;;;;;;;6171375;28;20035;-84
2021/08/20 16:22:18;;;;;;;1.10;0.80;;;;;;;;;;6170746;28;20035;-79
2021/08/20 16:25:20;;;;;;;1.60;0.98;;;;;;;;;;6166337;28;20047;-79
2021/08/20 16:28:21;;;;;;;2.40;0.85;;;;;;;;;;6165048;28;20042;-80
2021/08/20 16:31:23;;;;;;;0.70;0.70;;;;;;;;;;6173881;28;20576;-81
2021/08/20 16:34:24;;;;;;;1.63;0.90;;;;;;;;;;6185287;28;20050;-81
2021/08/20 16:37:26;;;;;;;0.75;0.73;;;;;;;;;;6190445;28;20057;-79
2021/08/20 16:40:29;;;;;;;0.70;0.60;;;;;;;;;;6188072;28;20055;-83
2021/08/20 16:43:31;;;;;;;1.95;1.00;;;;;;;;;;6186487;28;20411;-83
2021/08/20 16:46:32;;;;;;;0.80;0.80;;;;;;;;;;6186493;28;20038;-79
2021/08/20 16:49:35;;;;;;;0.75;0.75;;;;;;;;;;6182839;28;20049;-81
2021/08/20 16:52:37;;;;;;;2.60;0.80;;;;;;;;;;6188413;28;20042;-79
2021/08/20 16:55:39;;;;;;;1.27;0.70;;;;;;;;;;6187646;28;20491;-80
2021/08/20 16:58:40;;;;;;;1.92;0.90;;;;;;;;;;6187111;28;20046;-81
2021/08/20 17:01:43;;;;;;;1.30;1.20;;;;;;;;;;6177570;28;20053;-80
2021/08/20 17:04:46;;;;;;;0.90;0.90;;;;;;;;;;6187165;28;20070;-79
2021/08/20 17:07:47;;;;;;;0.60;0.60;;;;;;;;;;6186841;28;20040;-81
2021/08/20 17:10:50;;;;;;;1.50;0.70;;;;;;;;;;6188944;28;20092;-81
2021/08/20 17:13:51;;;;;;;0.55;0.55;;;;;;;;;;6185862;28;20054;-84
2021/08/20 17:16:53;;;;;;;1.05;0.57;;;;;;;;;;6190622;28;20050;-79
2021/08/20 17:19:54;;;;;;;0.75;0.60;;;;;;;;;;6180774;28;20392;-79
2021/08/20 17:22:58;;;;;;;0.83;0.70;;;;;;;;;;6188351;28;20096;-80
2021/08/20 17:26:00;;;;;;;0.77;0.77;;;;;;;;;;6187272;28;20050;-80
2021/08/20 17:29:05;;;;;;;1.60;0.93;;;;;;;;;;6169617;28;20049;-80
2021/08/20 17:32:09;;;;;;;1.17;0.90;;;;;;;;;;6170619;28;20046;-82
2021/08/20 17:35:11;;;;;;;1.25;1.15;;;;;;;;;;6189525;28;20056;-79
2021/08/20 17:38:13;;;;;;;1.50;1.15;;;;;;;;;;6230736;28;20490;-84
2021/08/20 17:41:14;;;;;;;2.08;1.20;;;;;;;;;;6193681;28;20038;-79
2021/08/20 17:44:16;;;;;;;2.00;0.88;;;;;;;;;;6197609;28;20044;-80
2021/08/20 17:47:18;;;;;;;2.38;1.30;;;;;;;;;;6186750;28;20037;-82
2021/08/20 17:50:20;;;;;;;1.80;1.30;;;;;;;;;;6204628;28;20051;-80
2021/08/20 17:53:22;;;;;;;1.05;0.95;;;;;;;;;;6211623;28;20144;-81
2021/08/20 17:56:23;;;;;;;1.25;1.00;;;;;;;;;;6201031;28;20046;-80
2021/08/20 17:59:25;;;;;;;1.30;0.98;;;;;;;;;;6209527;28;20046;-83
2021/08/20 18:02:28;;;;;;;2.30;1.00;;;;;;;;;;6164098;28;20059;-80
2021/08/20 18:05:30;;;;;;;1.50;1.13;;;;;;;;;;6186176;28;20050;-81
2021/08/20 18:08:33;;;;;;;1.80;1.33;;;;;;;;;;6180889;28;20050;-80
2021/08/20 18:11:35;;;;;;;1.63;1.20;;;;;;;;;;6185896;28;20046;-82
2021/08/20 18:14:40;;;;;;;1.60;1.38;;;;;;;;;;6194650;28;20042;-82
2021/08/20 18:17:42;;;;;;;2.45;1.20;;;;;;;;;;6186788;28;20193;-83
2021/08/20 18:20:44;;;;;;;1.17;0.95;;;;;;;;;;6192037;28;20038;-83
2021/08/20 18:23:46;;;;;;;1.23;1.10;;;;;;;;;;6187001;28;20038;-82